sensor_id;sensor_type;location;lat;lon;timestamp;pressure;altitude;pressure_sealevel;temperature;humidity
47763;BME280;33526;42.690;23.322;2022-10-17T06:18:35;96502.28;;;6.46;78.76
47763;BME280;33526;42.690;23.322;2022-10-17T06:21:56;96369.00;;;5.72;77.96
47763;BME280;33526;42.690;23.322;2022-10-17T06:24:30;96512.00;;;6.76;76.62
47763;BME280;33526;42.690;23.322;2022-10-17T06:27:04;96471.72;;;6.46;76.63
47763;BME280;33526;42.690;23.322;2022-10-17T06:29:30;96542.97;;;6.78;76.56
47763;BME280;33526;42.690;23.322;2022-10-17T06:31:55;96549.22;;;6.89;77.24
47763;BME280;33526;42.690;23.322;2022-10-17T06:34:21;96608.50;;;7.32;76.68
47763;BME280;33526;42.690;23.322;2022-10-17T06:36:47;96431.53;;;5.95;76.93
47763;BME280;33526;42.690;23.322;2022-10-17T06:39:12;96501.94;;;6.37;77.61
47763;BME280;33526;42.690;23.322;2022-10-17T06:41:38;96412.16;;;5.84;77.06
47763;BME280;33526;42.690;23.322;2022-10-17T06:44:06;96494.81;;;6.36;77.20
47763;BME280;33526;42.690;23.322;2022-10-17T06:46:39;96436.97;;;6.20;76.50
47763;BME280;33526;42.690;23.322;2022-10-17T06:49:09;96534.13;;;6.91;76.58
47763;BME280;33526;42.690;23.322;2022-10-17T06:51:41;96611.53;;;7.52;76.52
47763;BME280;33526;42.690;23.322;2022-10-17T06:54:16;96480.38;;;7.04;75.42
47763;BME280;33526;42.690;23.322;2022-10-17T06:56:42;96424.63;;;6.77;74.58
47763;BME280;33526;42.690;23.322;2022-10-17T06:59:10;96489.63;;;7.36;74.01
47763;BME280;33526;42.690;23.322;2022-10-17T07:01:38;96456.88;;;7.09;73.36
47763;BME280;33526;42.690;23.322;2022-10-17T07:04:04;96546.47;;;7.76;73.56
47763;BME280;33526;42.690;23.322;2022-10-17T07:06:42;96535.56;;;7.89;73.46
47763;BME280;33526;42.690;23.322;2022-10-17T07:09:32;96457.56;;;7.58;72.96
47763;BME280;33526;42.690;23.322;2022-10-17T07:11:58;96531.59;;;8.21;71.95
47763;BME280;33526;42.690;23.322;2022-10-17T07:14:25;96493.59;;;7.73;72.39
47763;BME280;33526;42.690;23.322;2022-10-17T07:16:59;96489.78;;;7.90;72.52
47763;BME280;33526;42.690;23.322;2022-10-17T07:19:27;96548.66;;;8.27;71.93
47763;BME280;33526;42.690;23.322;2022-10-17T07:21:53;96613.59;;;8.85;72.10
47763;BME280;33526;42.690;23.322;2022-10-17T07:24:20;96610.97;;;8.74;71.37
47763;BME280;33526;42.690;23.322;2022-10-17T07:26:49;96617.06;;;8.93;70.98
47763;BME280;33526;42.690;23.322;2022-10-17T07:29:22;96470.88;;;8.09;70.28
47763;BME280;33526;42.690;23.322;2022-10-17T07:31:52;96446.91;;;8.15;70.09
47763;BME280;33526;42.690;23.322;2022-10-17T07:34:21;96563.38;;;9.12;70.21
47763;BME280;33526;42.690;23.322;2022-10-17T07:36:53;96509.78;;;8.74;69.19
47763;BME280;33526;42.690;23.322;2022-10-17T07:39:19;96481.22;;;8.66;68.58
47763;BME280;33526;42.690;23.322;2022-10-17T07:41:44;96544.53;;;8.93;69.04
47763;BME280;33526;42.690;23.322;2022-10-17T07:44:10;96567.16;;;9.26;68.85
47763;BME280;33526;42.690;23.322;2022-10-17T07:46:39;96552.81;;;9.24;68.09
47763;BME280;33526;42.690;23.322;2022-10-17T07:49:04;96555.69;;;9.44;67.74
47763;BME280;33526;42.690;23.322;2022-10-17T07:51:30;96575.16;;;9.71;67.71
47763;BME280;33526;42.690;23.322;2022-10-17T07:53:55;96497.50;;;9.42;66.75
47763;BME280;33526;42.690;23.322;2022-10-17T07:56:21;96556.97;;;9.83;65.77
47763;BME280;33526;42.690;23.322;2022-10-17T07:58:49;96626.44;;;10.24;66.17
47763;BME280;33526;42.690;23.322;2022-10-17T08:01:14;96630.09;;;10.21;65.56
47763;BME280;33526;42.690;23.322;2022-10-17T08:03:42;96531.31;;;9.68;65.38
47763;BME280;33526;42.690;23.322;2022-10-17T08:06:08;96621.13;;;10.33;65.48
47763;BME280;33526;42.690;23.322;2022-10-17T08:08:33;96554.78;;;10.14;64.59
47763;BME280;33526;42.690;23.322;2022-10-17T08:11:10;96595.72;;;10.64;63.32
47763;BME280;33526;42.690;23.322;2022-10-17T08:13:36;96598.56;;;10.81;62.70
47763;BME280;33526;42.690;23.322;2022-10-17T08:16:04;96602.41;;;10.87;63.02
47763;BME280;33526;42.690;23.322;2022-10-17T08:18:31;96524.81;;;10.35;63.03
47763;BME280;33526;42.690;23.322;2022-10-17T08:21:02;96566.78;;;10.71;62.49
47763;BME280;33526;42.690;23.322;2022-10-17T08:23:30;96551.88;;;10.94;61.35
47763;BME280;33526;42.690;23.322;2022-10-17T08:26:01;96599.31;;;11.34;60.83
47763;BME280;33526;42.690;23.322;2022-10-17T08:28:27;96572.03;;;11.22;60.21
47763;BME280;33526;42.690;23.322;2022-10-17T08:30:53;96555.75;;;11.17;60.36
47763;BME280;33526;42.690;23.322;2022-10-17T08:33:25;96494.44;;;10.89;58.79
47763;BME280;33526;42.690;23.322;2022-10-17T08:35:51;96507.97;;;11.24;57.83
47763;BME280;33526;42.690;23.322;2022-10-17T08:38:16;96505.25;;;11.37;56.68
47763;BME280;33526;42.690;23.322;2022-10-17T08:40:41;96582.09;;;12.14;57.12
47763;BME280;33526;42.690;23.322;2022-10-17T08:45:54;96575.75;;;12.27;56.62
47763;BME280;33526;42.690;23.322;2022-10-17T08:48:23;96542.97;;;12.23;55.08
47763;BME280;33526;42.690;23.322;2022-10-17T08:50:52;96584.13;;;12.56;55.01
47763;BME280;33526;42.690;23.322;2022-10-17T08:55:53;96577.84;;;12.65;54.62
47763;BME280;33526;42.690;23.322;2022-10-17T08:58:26;96602.25;;;12.93;53.87
47763;BME280;33526;42.690;23.322;2022-10-17T09:04:23;96557.22;;;12.84;52.28
47763;BME280;33526;42.690;23.322;2022-10-17T09:07:03;96524.31;;;12.72;51.75
47763;BME280;33526;42.690;23.322;2022-10-17T09:17:37;96574.75;;;13.14;48.41
47763;BME280;33526;42.690;23.322;2022-10-17T09:20:35;96599.91;;;13.56;49.21
47763;BME280;33526;42.690;23.322;2022-10-17T09:25:48;96595.91;;;13.79;48.34
47763;BME280;33526;42.690;23.322;2022-10-17T09:28:36;96593.78;;;13.83;48.32
47763;BME280;33526;42.690;23.322;2022-10-17T09:31:05;96562.16;;;13.92;45.31
47763;BME280;33526;42.690;23.322;2022-10-17T09:33:38;96590.25;;;14.27;45.55
47763;BME280;33526;42.690;23.322;2022-10-17T09:36:10;96597.91;;;14.48;43.68
47763;BME280;33526;42.690;23.322;2022-10-17T09:38:43;96597.91;;;14.48;42.72
47763;BME280;33526;42.690;23.322;2022-10-17T09:41:17;96571.34;;;14.49;42.81
47763;BME280;33526;42.690;23.322;2022-10-17T09:43:43;96475.72;;;14.05;42.89
47763;BME280;33526;42.690;23.322;2022-10-17T09:46:17;96548.13;;;14.58;41.56
47763;BME280;33526;42.690;23.322;2022-10-17T09:49:17;96598.53;;;14.87;41.88
47763;BME280;33526;42.690;23.322;2022-10-17T09:51:42;96573.38;;;14.93;41.82
47763;BME280;33526;42.690;23.322;2022-10-17T09:54:18;96564.03;;;15.05;41.56
47763;BME280;33526;42.690;23.322;2022-10-17T09:56:59;96550.22;;;14.98;40.77
47763;BME280;33526;42.690;23.322;2022-10-17T09:59:31;96567.31;;;15.04;40.53
47763;BME280;33526;42.690;23.322;2022-10-17T10:04:32;96492.16;;;14.91;39.77
47763;BME280;33526;42.690;23.322;2022-10-17T10:07:05;96555.53;;;15.37;39.54
47763;BME280;33526;42.690;23.322;2022-10-17T10:09:33;96505.97;;;15.08;38.26
47763;BME280;33526;42.690;23.322;2022-10-17T10:12:03;96510.00;;;14.98;38.41
47763;BME280;33526;42.690;23.322;2022-10-17T10:14:35;96500.97;;;15.12;38.16
47763;BME280;33526;42.690;23.322;2022-10-17T10:17:03;96462.94;;;15.07;36.28
47763;BME280;33526;42.690;23.322;2022-10-17T10:19:37;96555.50;;;15.77;35.15
47763;BME280;33526;42.690;23.322;2022-10-17T10:22:03;96549.06;;;15.86;35.83
47763;BME280;33526;42.690;23.322;2022-10-17T10:24:30;96511.16;;;15.78;35.62
47763;BME280;33526;42.690;23.322;2022-10-17T10:26:58;96549.72;;;16.18;35.09
47763;BME280;33526;42.690;23.322;2022-10-17T10:29:31;96550.00;;;16.29;31.90
47763;BME280;33526;42.690;23.322;2022-10-17T10:32:30;96530.56;;;16.31;32.62
47763;BME280;33526;42.690;23.322;2022-10-17T10:35:04;96467.44;;;15.92;32.72
47763;BME280;33526;42.690;23.322;2022-10-17T10:37:40;96482.31;;;16.20;33.16
47763;BME280;33526;42.690;23.322;2022-10-17T10:42:51;96476.16;;;16.40;34.09
47763;BME280;33526;42.690;23.322;2022-10-17T10:45:19;96503.56;;;16.58;36.90
47763;BME280;33526;42.690;23.322;2022-10-17T10:47:58;96528.28;;;16.81;34.88
47763;BME280;33526;42.690;23.322;2022-10-17T10:50:43;96524.53;;;16.75;34.18
47763;BME280;33526;42.690;23.322;2022-10-17T10:53:30;96517.47;;;16.71;34.02
47763;BME280;33526;42.690;23.322;2022-10-17T10:56:05;96489.75;;;16.60;34.66
47763;BME280;33526;42.690;23.322;2022-10-17T11:06:52;96499.34;;;17.05;32.51
47763;BME280;33526;42.690;23.322;2022-10-17T11:11:53;96502.59;;;17.13;32.66
47763;BME280;33526;42.690;23.322;2022-10-17T11:14:38;96456.41;;;16.82;32.61
47763;BME280;33526;42.690;23.322;2022-10-17T11:17:26;96452.28;;;17.02;31.46
47763;BME280;33526;42.690;23.322;2022-10-17T11:22:31;96431.72;;;17.02;30.75
47763;BME280;33526;42.690;23.322;2022-10-17T11:25:04;96493.38;;;17.36;31.66
47763;BME280;33526;42.690;23.322;2022-10-17T11:27:30;96491.97;;;17.32;32.16
47763;BME280;33526;42.690;23.322;2022-10-17T11:29:56;96477.00;;;17.41;31.94
47763;BME280;33526;42.690;23.322;2022-10-17T11:32:42;96492.66;;;17.51;32.54
47763;BME280;33526;42.690;23.322;2022-10-17T11:37:47;96443.09;;;17.41;31.14
47763;BME280;33526;42.690;23.322;2022-10-17T11:40:18;96450.13;;;17.45;31.13
47763;BME280;33526;42.690;23.322;2022-10-17T11:45:50;96482.34;;;17.63;31.33
47763;BME280;33526;42.690;23.322;2022-10-17T11:48:24;96431.72;;;17.26;32.07
47763;BME280;33526;42.690;23.322;2022-10-17T11:51:02;96427.81;;;17.23;30.98
47763;BME280;33526;42.690;23.322;2022-10-17T11:54:08;96428.13;;;17.25;31.10
47763;BME280;33526;42.690;23.322;2022-10-17T11:56:31;96466.47;;;17.65;31.18
47763;BME280;33526;42.690;23.322;2022-10-17T12:01:43;96466.97;;;17.64;31.40
47763;BME280;33526;42.690;23.322;2022-10-17T12:04:24;96469.41;;;17.71;31.95
47763;BME280;33526;42.690;23.322;2022-10-17T12:09:53;96465.06;;;17.85;31.85
47763;BME280;33526;42.690;23.322;2022-10-17T12:12:33;96446.09;;;17.61;31.47
47763;BME280;33526;42.690;23.322;2022-10-17T12:18:07;96452.75;;;17.73;31.16
47763;BME280;33526;42.690;23.322;2022-10-17T12:20:40;96346.47;;;17.03;29.79
47763;BME280;33526;42.690;23.322;2022-10-17T12:25:55;96446.38;;;18.02;29.97
47763;BME280;33526;42.690;23.322;2022-10-17T12:28:29;96458.13;;;18.10;30.11
47763;BME280;33526;42.690;23.322;2022-10-17T12:31:01;96463.56;;;17.99;29.44
47763;BME280;33526;42.690;23.322;2022-10-17T12:33:31;96452.84;;;18.03;29.66
47763;BME280;33526;42.690;23.322;2022-10-17T12:38:44;96455.00;;;18.08;30.55
47763;BME280;33526;42.690;23.322;2022-10-17T12:41:10;96436.25;;;17.95;30.97
47763;BME280;33526;42.690;23.322;2022-10-17T12:46:07;96432.00;;;18.15;30.83
47763;BME280;33526;42.690;23.322;2022-10-17T12:56:47;96446.81;;;18.10;28.65
47763;BME280;33526;42.690;23.322;2022-10-17T12:59:19;96444.47;;;18.08;28.96
47763;BME280;33526;42.690;23.322;2022-10-17T13:01:47;96448.97;;;18.15;29.64
47763;BME280;33526;42.690;23.322;2022-10-17T13:04:15;96374.75;;;17.81;30.09
47763;BME280;33526;42.690;23.322;2022-10-17T13:06:47;96398.56;;;17.89;30.42
47763;BME280;33526;42.690;23.322;2022-10-17T13:09:34;96377.28;;;17.79;30.50
47763;BME280;33526;42.690;23.322;2022-10-17T13:12:02;96448.97;;;18.15;29.83
47763;BME280;33526;42.690;23.322;2022-10-17T13:14:30;96336.16;;;17.39;30.45
47763;BME280;33526;42.690;23.322;2022-10-17T13:16:58;96396.94;;;17.73;30.48
47763;BME280;33526;42.690;23.322;2022-10-17T13:19:30;96434.88;;;18.06;31.73
47763;BME280;33526;42.690;23.322;2022-10-17T13:21:58;96431.09;;;18.09;30.43
47763;BME280;33526;42.690;23.322;2022-10-17T13:24:34;96438.59;;;18.12;30.47
47763;BME280;33526;42.690;23.322;2022-10-17T13:27:00;96439.47;;;18.18;31.06
47763;BME280;33526;42.690;23.322;2022-10-17T13:29:29;96341.84;;;17.54;30.75
47763;BME280;33526;42.690;23.322;2022-10-17T13:32:01;96441.16;;;18.10;31.76
47763;BME280;33526;42.690;23.322;2022-10-17T13:34:28;96384.75;;;17.67;31.80
47763;BME280;33526;42.690;23.322;2022-10-17T13:36:56;96413.91;;;17.98;31.67
47763;BME280;33526;42.690;23.322;2022-10-17T13:39:24;96440.16;;;18.13;31.99
47763;BME280;33526;42.690;23.322;2022-10-17T13:41:52;96441.72;;;18.14;32.40
47763;BME280;33526;42.690;23.322;2022-10-17T13:44:21;96441.53;;;18.03;32.22
47763;BME280;33526;42.690;23.322;2022-10-17T13:46:47;96383.09;;;17.61;32.98
47763;BME280;33526;42.690;23.322;2022-10-17T13:49:19;96426.28;;;18.00;33.23
47763;BME280;33526;42.690;23.322;2022-10-17T13:51:49;96401.25;;;17.69;32.96
47763;BME280;33526;42.690;23.322;2022-10-17T13:54:24;96442.19;;;17.98;32.39
47763;BME280;33526;42.690;23.322;2022-10-17T13:56:55;96453.22;;;17.95;32.94
47763;BME280;33526;42.690;23.322;2022-10-17T13:59:25;96424.50;;;17.88;33.58
47763;BME280;33526;42.690;23.322;2022-10-17T14:01:52;96350.84;;;17.28;33.45
47763;BME280;33526;42.690;23.322;2022-10-17T14:04:20;96358.47;;;17.37;33.93
47763;BME280;33526;42.690;23.322;2022-10-17T14:06:47;96421.44;;;17.76;34.24
47763;BME280;33526;42.690;23.322;2022-10-17T14:09:26;96443.31;;;17.76;34.31
47763;BME280;33526;42.690;23.322;2022-10-17T14:12:11;96369.44;;;17.20;35.21
47763;BME280;33526;42.690;23.322;2022-10-17T14:14:38;96400.19;;;17.42;35.90
47763;BME280;33526;42.690;23.322;2022-10-17T14:17:19;96434.53;;;17.50;36.26
47763;BME280;33526;42.690;23.322;2022-10-17T14:19:51;96397.59;;;17.14;36.59
47763;BME280;33526;42.690;23.322;2022-10-17T14:22:26;96448.38;;;17.48;36.73
47763;BME280;33526;42.690;23.322;2022-10-17T14:24:52;96450.84;;;17.31;36.85
47763;BME280;33526;42.690;23.322;2022-10-17T14:29:54;96364.22;;;16.70;37.64
47763;BME280;33526;42.690;23.322;2022-10-17T14:32:20;96423.41;;;16.98;38.23
47763;BME280;33526;42.690;23.322;2022-10-17T14:34:51;96453.47;;;17.10;38.42
47763;BME280;33526;42.690;23.322;2022-10-17T14:37:32;96445.03;;;17.01;38.96
47763;BME280;33526;42.690;23.322;2022-10-17T14:40:02;96327.28;;;16.16;38.85
47763;BME280;33526;42.690;23.322;2022-10-17T14:42:28;96418.16;;;16.72;39.41
47763;BME280;33526;42.690;23.322;2022-10-17T14:44:57;96445.91;;;16.83;39.24
47763;BME280;33526;42.690;23.322;2022-10-17T14:47:26;96385.56;;;16.29;39.67
47763;BME280;33526;42.690;23.322;2022-10-17T14:55:32;96415.97;;;16.34;40.07
47763;BME280;33526;42.690;23.322;2022-10-17T14:57:58;96398.63;;;16.08;40.31
47763;BME280;33526;42.690;23.322;2022-10-17T15:00:24;96389.84;;;16.05;40.55
47763;BME280;33526;42.690;23.322;2022-10-17T15:02:51;96463.44;;;16.44;40.82
47763;BME280;33526;42.690;23.322;2022-10-17T15:05:17;96433.41;;;16.14;41.02
47763;BME280;33526;42.690;23.322;2022-10-17T15:07:44;96468.03;;;16.23;41.45
47763;BME280;33526;42.690;23.322;2022-10-17T15:10:35;96470.09;;;16.14;41.64
47763;BME280;33526;42.690;23.322;2022-10-17T15:13:02;96472.94;;;16.04;42.03
47763;BME280;33526;42.690;23.322;2022-10-17T15:15:29;96413.53;;;15.62;42.39
47763;BME280;33526;42.690;23.322;2022-10-17T15:17:56;96453.81;;;15.81;42.56
47763;BME280;33526;42.690;23.322;2022-10-17T15:20:24;96465.72;;;15.85;42.80
47763;BME280;33526;42.690;23.322;2022-10-17T15:22:53;96436.25;;;15.58;43.09
47763;BME280;33526;42.690;23.322;2022-10-17T15:25:19;96476.84;;;15.70;42.97
47763;BME280;33526;42.690;23.322;2022-10-17T15:27:45;96384.84;;;14.99;43.28
47763;BME280;33526;42.690;23.322;2022-10-17T15:30:34;96477.28;;;15.59;43.30
47763;BME280;33526;42.690;23.322;2022-10-17T15:33:01;96369.78;;;14.74;43.65
47763;BME280;33526;42.690;23.322;2022-10-17T15:35:27;96357.53;;;14.59;43.97
47763;BME280;33526;42.690;23.322;2022-10-17T15:37:53;96365.75;;;14.53;44.03
47763;BME280;33526;42.690;23.322;2022-10-17T15:40:26;96485.38;;;15.29;44.21
47763;BME280;33526;42.690;23.322;2022-10-17T15:43:01;96494.13;;;15.22;44.21
47763;BME280;33526;42.690;23.322;2022-10-17T15:45:26;96307.50;;;13.82;44.44
47763;BME280;33526;42.690;23.322;2022-10-17T15:47:57;96289.78;;;13.72;44.44
47763;BME280;33526;42.690;23.322;2022-10-17T15:50:24;96249.50;;;13.34;44.80
47763;BME280;33526;42.690;23.322;2022-10-17T15:52:54;96424.69;;;14.47;45.00
47763;BME280;33526;42.690;23.322;2022-10-17T15:55:20;96357.69;;;13.92;45.56
47763;BME280;33526;42.690;23.322;2022-10-17T15:57:49;96520.28;;;14.82;46.92
47763;BME280;33526;42.690;23.322;2022-10-17T16:00:22;96443.94;;;14.18;46.49
47763;BME280;33526;42.690;23.322;2022-10-17T16:02:48;96394.19;;;13.83;46.63
47763;BME280;33526;42.690;23.322;2022-10-17T16:05:24;96519.44;;;14.50;47.35
47763;BME280;33526;42.690;23.322;2022-10-17T16:07:56;96450.16;;;13.90;47.67
47763;BME280;33526;42.690;23.322;2022-10-17T16:10:22;96452.66;;;13.88;47.87
47763;BME280;33526;42.690;23.322;2022-10-17T16:12:49;96402.22;;;13.50;47.78
47763;BME280;33526;42.690;23.322;2022-10-17T16:15:20;96335.56;;;12.93;48.10
47763;BME280;33526;42.690;23.322;2022-10-17T16:17:53;96326.50;;;12.76;49.03
47763;BME280;33526;42.690;23.322;2022-10-17T16:20:20;96449.47;;;13.64;48.79
47763;BME280;33526;42.690;23.322;2022-10-17T16:22:47;96436.75;;;13.37;47.64
47763;BME280;33526;42.690;23.322;2022-10-17T16:25:24;96485.69;;;13.62;47.71
47763;BME280;33526;42.690;23.322;2022-10-17T16:27:52;96507.03;;;13.72;47.57
47763;BME280;33526;42.690;23.322;2022-10-17T16:30:19;96515.13;;;13.70;47.70
47763;BME280;33526;42.690;23.322;2022-10-17T16:32:45;96499.75;;;13.62;47.59
47763;BME280;33526;42.690;23.322;2022-10-17T16:35:20;96442.44;;;13.12;48.00
47763;BME280;33526;42.690;23.322;2022-10-17T16:37:46;96420.69;;;12.90;50.51
47763;BME280;33526;42.690;23.322;2022-10-17T16:40:12;96524.91;;;13.66;51.70
47763;BME280;33526;42.690;23.322;2022-10-17T16:42:39;96526.16;;;13.52;49.42
47763;BME280;33526;42.690;23.322;2022-10-17T16:45:05;96446.22;;;13.18;49.28
47763;BME280;33526;42.690;23.322;2022-10-17T16:47:31;96449.63;;;13.13;49.97
47763;BME280;33526;42.690;23.322;2022-10-17T16:49:57;96563.06;;;13.89;49.93
47763;BME280;33526;42.690;23.322;2022-10-17T16:52:23;96318.53;;;12.14;50.22
47763;BME280;33526;42.690;23.322;2022-10-17T16:54:48;96412.88;;;12.59;50.68
47763;BME280;33526;42.690;23.322;2022-10-17T16:57:17;96499.72;;;13.01;51.64
47763;BME280;33526;42.690;23.322;2022-10-17T16:59:43;96570.59;;;13.31;52.39
47763;BME280;33526;42.690;23.322;2022-10-17T17:02:09;96327.22;;;11.65;52.38
47763;BME280;33526;42.690;23.322;2022-10-17T17:04:35;96339.75;;;11.60;52.66
47763;BME280;33526;42.690;23.322;2022-10-17T17:07:01;96449.22;;;12.37;53.26
47763;BME280;33526;42.690;23.322;2022-10-17T17:09:26;96568.56;;;13.06;53.89
47763;BME280;33526;42.690;23.322;2022-10-17T17:11:52;96509.25;;;12.53;53.99
47763;BME280;33526;42.690;23.322;2022-10-17T17:14:17;96472.09;;;12.36;54.09
47763;BME280;33526;42.690;23.322;2022-10-17T17:16:43;96577.88;;;12.90;54.59
47763;BME280;33526;42.690;23.322;2022-10-17T17:19:11;96495.84;;;12.18;55.32
47763;BME280;33526;42.690;23.322;2022-10-17T17:21:37;96590.22;;;12.80;55.86
47763;BME280;33526;42.690;23.322;2022-10-17T17:24:03;96467.25;;;11.81;57.18
47763;BME280;33526;42.690;23.322;2022-10-17T17:26:31;96475.09;;;11.86;56.68
47763;BME280;33526;42.690;23.322;2022-10-17T17:28:58;96455.53;;;11.70;57.44
47763;BME280;33526;42.690;23.322;2022-10-17T17:31:25;96598.03;;;12.59;56.88
47763;BME280;33526;42.690;23.322;2022-10-17T17:33:52;96453.69;;;11.51;57.32
47763;BME280;33526;42.690;23.322;2022-10-17T17:36:24;96443.34;;;11.47;57.25
47763;BME280;33526;42.690;23.322;2022-10-17T17:38:53;96535.34;;;11.95;57.68
47763;BME280;33526;42.690;23.322;2022-10-17T17:41:19;96476.78;;;11.55;57.54
47763;BME280;33526;42.690;23.322;2022-10-17T17:43:46;96393.06;;;10.98;58.25
47763;BME280;33526;42.690;23.322;2022-10-17T17:46:13;96625.50;;;12.22;58.84
47763;BME280;33526;42.690;23.322;2022-10-17T17:48:43;96533.81;;;11.61;58.89
47763;BME280;33526;42.690;23.322;2022-10-17T17:51:14;96420.44;;;10.74;59.17
47763;BME280;33526;42.690;23.322;2022-10-17T17:53:42;96415.47;;;10.65;59.52
47763;BME280;33526;42.690;23.322;2022-10-17T17:56:11;96503.56;;;11.39;59.84
47763;BME280;33526;42.690;23.322;2022-10-17T17:58:39;96612.25;;;12.10;60.00
47763;BME280;33526;42.690;23.322;2022-10-17T18:01:09;96544.69;;;11.59;60.25
47763;BME280;33526;42.690;23.322;2022-10-17T18:03:37;96498.88;;;11.36;59.99
47763;BME280;33526;42.690;23.322;2022-10-17T18:06:06;96497.72;;;11.34;60.16
47763;BME280;33526;42.690;23.322;2022-10-17T18:08:33;96507.63;;;11.38;59.98
47763;BME280;33526;42.690;23.322;2022-10-17T18:10:59;96546.28;;;11.60;60.17
47763;BME280;33526;42.690;23.322;2022-10-17T18:13:24;96568.69;;;11.60;60.26
47763;BME280;33526;42.690;23.322;2022-10-17T18:15:55;96552.34;;;11.42;60.66
47763;BME280;33526;42.690;23.322;2022-10-17T18:18:23;96571.31;;;11.51;61.35
47763;BME280;33526;42.690;23.322;2022-10-17T18:20:50;96627.22;;;11.87;61.66
47763;BME280;33526;42.690;23.322;2022-10-17T18:23:15;96453.75;;;10.52;62.11
47763;BME280;33526;42.690;23.322;2022-10-17T18:25:42;96537.88;;;11.10;62.81
47763;BME280;33526;42.690;23.322;2022-10-17T18:28:16;96443.88;;;10.27;63.03
47763;BME280;33526;42.690;23.322;2022-10-17T18:30:43;96572.19;;;11.15;63.01
47763;BME280;33526;42.690;23.322;2022-10-17T18:33:08;96563.50;;;11.09;63.42
47763;BME280;33526;42.690;23.322;2022-10-17T18:35:34;96530.31;;;10.75;62.86
47763;BME280;33526;42.690;23.322;2022-10-17T18:37:59;96628.38;;;11.40;63.75
47763;BME280;33526;42.690;23.322;2022-10-17T18:40:25;96512.66;;;10.61;63.40
47763;BME280;33526;42.690;23.322;2022-10-17T18:42:52;96514.38;;;10.55;62.57
47763;BME280;33526;42.690;23.322;2022-10-17T18:45:18;96522.16;;;10.47;60.72
47763;BME280;33526;42.690;23.322;2022-10-17T18:47:46;96504.75;;;10.40;60.88
47763;BME280;33526;42.690;23.322;2022-10-17T18:50:14;96574.94;;;10.82;61.23
47763;BME280;33526;42.690;23.322;2022-10-17T18:52:42;96524.88;;;10.51;61.34
47763;BME280;33526;42.690;23.322;2022-10-17T18:55:08;96524.63;;;10.62;61.84
47763;BME280;33526;42.690;23.322;2022-10-17T18:57:34;96529.28;;;10.68;61.15
47763;BME280;33526;42.690;23.322;2022-10-17T18:59:59;96526.59;;;10.81;60.57
47763;BME280;33526;42.690;23.322;2022-10-17T19:02:25;96548.88;;;10.85;59.98
47763;BME280;33526;42.690;23.322;2022-10-17T19:04:51;96640.28;;;11.44;60.67
47763;BME280;33526;42.690;23.322;2022-10-17T19:07:16;96573.47;;;10.94;60.91
47763;BME280;33526;42.690;23.322;2022-10-17T19:09:44;96532.41;;;10.54;60.90
47763;BME280;33526;42.690;23.322;2022-10-17T19:12:14;96497.34;;;10.29;60.69
47763;BME280;33526;42.690;23.322;2022-10-17T19:14:43;96630.59;;;11.13;61.26
47763;BME280;33526;42.690;23.322;2022-10-17T19:17:08;96578.03;;;10.67;61.18
47763;BME280;33526;42.690;23.322;2022-10-17T19:19:33;96577.34;;;10.63;61.19
47763;BME280;33526;42.690;23.322;2022-10-17T19:21:59;96595.72;;;10.64;62.09
47763;BME280;33526;42.690;23.322;2022-10-17T19:24:27;96567.41;;;10.42;62.15
47763;BME280;33526;42.690;23.322;2022-10-17T19:26:56;96596.53;;;10.45;62.58
47763;BME280;33526;42.690;23.322;2022-10-17T19:29:26;96627.78;;;10.60;61.65
47763;BME280;33526;42.690;23.322;2022-10-17T19:31:52;96597.03;;;10.40;61.56
47763;BME280;33526;42.690;23.322;2022-10-17T19:34:18;96563.38;;;10.23;61.31
47763;BME280;33526;42.690;23.322;2022-10-17T19:36:44;96648.63;;;10.75;60.13
47763;BME280;33526;42.690;23.322;2022-10-17T19:39:12;96657.88;;;10.72;60.01
47763;BME280;33526;42.690;23.322;2022-10-17T19:41:43;96634.28;;;10.53;57.39
47763;BME280;33526;42.690;23.322;2022-10-17T19:44:08;96642.41;;;10.47;57.26
47763;BME280;33526;42.690;23.322;2022-10-17T19:46:37;96580.94;;;10.04;56.73
47763;BME280;33526;42.690;23.322;2022-10-17T19:49:04;96655.94;;;10.49;55.87
47763;BME280;33526;42.690;23.322;2022-10-17T19:51:30;96658.25;;;10.54;56.56
47763;BME280;33526;42.690;23.322;2022-10-17T19:53:57;96581.00;;;10.00;57.48
47763;BME280;33526;42.690;23.322;2022-10-17T19:56:30;96559.81;;;9.79;57.23
47763;BME280;33526;42.690;23.322;2022-10-17T19:58:57;96671.16;;;10.48;58.61
47763;BME280;33526;42.690;23.322;2022-10-17T20:01:25;96617.97;;;10.08;59.09
47763;BME280;33526;42.690;23.322;2022-10-17T20:03:51;96564.69;;;9.75;58.33
47763;BME280;33526;42.690;23.322;2022-10-17T20:06:18;96605.50;;;9.92;59.18
47763;BME280;33526;42.690;23.322;2022-10-17T20:08:44;96570.53;;;9.61;58.72
47763;BME280;33526;42.690;23.322;2022-10-17T20:11:12;96592.00;;;9.87;58.12
47763;BME280;33526;42.690;23.322;2022-10-17T20:13:37;96679.69;;;10.41;58.55
47763;BME280;33526;42.690;23.322;2022-10-17T20:16:05;96595.59;;;9.88;58.96
47763;BME280;33526;42.690;23.322;2022-10-17T20:18:32;96612.03;;;10.06;58.99
47763;BME280;33526;42.690;23.322;2022-10-17T20:21:03;96677.75;;;10.38;59.77
47763;BME280;33526;42.690;23.322;2022-10-17T20:23:29;96649.81;;;10.14;60.19
47763;BME280;33526;42.690;23.322;2022-10-17T20:26:03;96680.66;;;10.30;59.75
47763;BME280;33526;42.690;23.322;2022-10-17T20:28:29;96590.31;;;9.70;59.78
47763;BME280;33526;42.690;23.322;2022-10-17T20:30:54;96661.94;;;10.27;60.33
47763;BME280;33526;42.690;23.322;2022-10-17T20:33:20;96676.69;;;10.28;60.85
47763;BME280;33526;42.690;23.322;2022-10-17T20:35:46;96559.19;;;9.48;60.88
47763;BME280;33526;42.690;23.322;2022-10-17T20:38:11;96563.25;;;9.43;61.57
47763;BME280;33526;42.690;23.322;2022-10-17T20:40:37;96661.13;;;10.07;62.09